sensor_id;sensor_type;location;lat;lon;timestamp;P1;durP1;ratioP1;P2;durP2;ratioP2
77362;SDS011;66428;47.322;9.432;2023-02-14T00:01:29;3.30;;;1.15;;
77362;SDS011;66428;47.322;9.432;2023-02-14T00:03:58;2.53;;;1.10;;
77362;SDS011;66428;47.322;9.432;2023-02-14T00:06:30;1.75;;;0.85;;
77362;SDS011;66428;47.322;9.432;2023-02-14T00:09:03;1.48;;;0.93;;
77362;SDS011;66428;47.322;9.432;2023-02-14T00:11:30;1.42;;;0.95;;
77362;SDS011;66428;47.322;9.432;2023-02-14T00:14:02;4.15;;;1.17;;
77362;SDS011;66428;47.322;9.432;2023-02-14T00:16:47;1.90;;;1.15;;
77362;SDS011;66428;47.322;9.432;2023-02-14T00:19:16;2.88;;;1.17;;
77362;SDS011;66428;47.322;9.432;2023-02-14T00:21:43;1.92;;;1.17;;
77362;SDS011;66428;47.322;9.432;2023-02-14T00:24:13;1.50;;;0.95;;
77362;SDS011;66428;47.322;9.432;2023-02-14T00:26:48;1.95;;;1.02;;
77362;SDS011;66428;47.322;9.432;2023-02-14T00:29:18;2.55;;;1.02;;
77362;SDS011;66428;47.322;9.432;2023-02-14T00:31:45;3.30;;;1.20;;
77362;SDS011;66428;47.322;9.432;2023-02-14T00:34:15;3.83;;;1.17;;
77362;SDS011;66428;47.322;9.432;2023-02-14T00:36:42;2.92;;;1.17;;
77362;SDS011;66428;47.322;9.432;2023-02-14T00:39:14;2.83;;;1.52;;
77362;SDS011;66428;47.322;9.432;2023-02-14T00:41:43;2.63;;;1.30;;
77362;SDS011;66428;47.322;9.432;2023-02-14T00:44:15;2.75;;;1.25;;
77362;SDS011;66428;47.322;9.432;2023-02-14T00:46:46;1.42;;;0.70;;
77362;SDS011;66428;47.322;9.432;2023-02-14T00:49:12;2.05;;;0.98;;
77362;SDS011;66428;47.322;9.432;2023-02-14T00:51:39;2.00;;;0.93;;
77362;SDS011;66428;47.322;9.432;2023-02-14T00:54:05;1.13;;;0.80;;
77362;SDS011;66428;47.322;9.432;2023-02-14T00:56:32;1.83;;;1.00;;
77362;SDS011;66428;47.322;9.432;2023-02-14T00:59:01;1.48;;;0.80;;
77362;SDS011;66428;47.322;9.432;2023-02-14T01:01:32;2.00;;;0.93;;
77362;SDS011;66428;47.322;9.432;2023-02-14T01:04:01;2.60;;;0.65;;
77362;SDS011;66428;47.322;9.432;2023-02-14T01:06:30;1.45;;;1.00;;
77362;SDS011;66428;47.322;9.432;2023-02-14T01:08:58;3.20;;;1.08;;
77362;SDS011;66428;47.322;9.432;2023-02-14T01:11:28;1.35;;;0.88;;
77362;SDS011;66428;47.322;9.432;2023-02-14T01:13:58;1.55;;;0.82;;
77362;SDS011;66428;47.322;9.432;2023-02-14T01:16:29;2.85;;;1.08;;
77362;SDS011;66428;47.322;9.432;2023-02-14T01:18:57;4.32;;;1.05;;
77362;SDS011;66428;47.322;9.432;2023-02-14T01:21:27;1.75;;;0.80;;
77362;SDS011;66428;47.322;9.432;2023-02-14T01:23:55;1.27;;;0.77;;
77362;SDS011;66428;47.322;9.432;2023-02-14T01:26:25;2.20;;;1.00;;
77362;SDS011;66428;47.322;9.432;2023-02-14T01:28:51;1.58;;;1.00;;
77362;SDS011;66428;47.322;9.432;2023-02-14T01:31:22;1.83;;;0.80;;
77362;SDS011;66428;47.322;9.432;2023-02-14T01:33:57;4.22;;;0.82;;
77362;SDS011;66428;47.322;9.432;2023-02-14T01:36:31;3.47;;;1.30;;
77362;SDS011;66428;47.322;9.432;2023-02-14T01:39:02;2.72;;;0.70;;
77362;SDS011;66428;47.322;9.432;2023-02-14T01:41:33;1.55;;;0.90;;
77362;SDS011;66428;47.322;9.432;2023-02-14T01:44:01;1.17;;;0.85;;
77362;SDS011;66428;47.322;9.432;2023-02-14T01:46:30;3.13;;;1.00;;
77362;SDS011;66428;47.322;9.432;2023-02-14T01:49:10;1.92;;;1.05;;
77362;SDS011;66428;47.322;9.432;2023-02-14T01:51:42;1.30;;;0.85;;
77362;SDS011;66428;47.322;9.432;2023-02-14T01:54:14;1.20;;;0.60;;
77362;SDS011;66428;47.322;9.432;2023-02-14T01:56:46;1.77;;;0.80;;
77362;SDS011;66428;47.322;9.432;2023-02-14T01:59:17;1.35;;;0.90;;
77362;SDS011;66428;47.322;9.432;2023-02-14T02:01:49;1.67;;;0.80;;
77362;SDS011;66428;47.322;9.432;2023-02-14T02:04:21;2.00;;;1.00;;
77362;SDS011;66428;47.322;9.432;2023-02-14T02:06:56;2.03;;;0.77;;
77362;SDS011;66428;47.322;9.432;2023-02-14T02:09:39;1.85;;;0.90;;
77362;SDS011;66428;47.322;9.432;2023-02-14T02:12:10;0.95;;;0.68;;
77362;SDS011;66428;47.322;9.432;2023-02-14T02:14:44;1.00;;;0.70;;
77362;SDS011;66428;47.322;9.432;2023-02-14T02:17:28;0.85;;;0.68;;
77362;SDS011;66428;47.322;9.432;2023-02-14T02:43:21;2.10;;;1.00;;
77362;SDS011;66428;47.322;9.432;2023-02-14T02:45:57;2.08;;;1.10;;
77362;SDS011;66428;47.322;9.432;2023-02-14T02:48:47;1.75;;;1.08;;
77362;SDS011;66428;47.322;9.432;2023-02-14T02:51:23;1.88;;;0.90;;
77362;SDS011;66428;47.322;9.432;2023-02-14T02:54:33;2.38;;;1.10;;
77362;SDS011;66428;47.322;9.432;2023-02-14T02:56:58;5.07;;;1.58;;
77362;SDS011;66428;47.322;9.432;2023-02-14T02:59:33;3.60;;;2.05;;
77362;SDS011;66428;47.322;9.432;2023-02-14T03:02:05;3.22;;;1.85;;
77362;SDS011;66428;47.322;9.432;2023-02-14T03:04:35;2.92;;;1.75;;
77362;SDS011;66428;47.322;9.432;2023-02-14T03:07:35;4.85;;;1.80;;
77362;SDS011;66428;47.322;9.432;2023-02-14T03:23:19;2.00;;;1.00;;
77362;SDS011;66428;47.322;9.432;2023-02-14T03:31:56;2.33;;;0.90;;
77362;SDS011;66428;47.322;9.432;2023-02-14T03:37:22;2.03;;;0.93;;
77362;SDS011;66428;47.322;9.432;2023-02-14T03:43:09;1.67;;;0.88;;
77362;SDS011;66428;47.322;9.432;2023-02-14T03:45:13;0.95;;;0.68;;
77362;SDS011;66428;47.322;9.432;2023-02-14T03:47:42;1.75;;;0.80;;
77362;SDS011;66428;47.322;9.432;2023-02-14T03:50:13;2.40;;;1.00;;
77362;SDS011;66428;47.322;9.432;2023-02-14T03:52:43;2.60;;;0.90;;
77362;SDS011;66428;47.322;9.432;2023-02-14T03:55:14;1.02;;;0.68;;
77362;SDS011;66428;47.322;9.432;2023-02-14T04:00:25;1.90;;;0.90;;
77362;SDS011;66428;47.322;9.432;2023-02-14T04:02:57;2.40;;;1.33;;
77362;SDS011;66428;47.322;9.432;2023-02-14T04:05:28;1.80;;;1.08;;
77362;SDS011;66428;47.322;9.432;2023-02-14T04:07:58;2.42;;;1.23;;
77362;SDS011;66428;47.322;9.432;2023-02-14T04:10:26;2.20;;;1.20;;
77362;SDS011;66428;47.322;9.432;2023-02-14T04:12:53;2.30;;;1.08;;
77362;SDS011;66428;47.322;9.432;2023-02-14T04:15:19;1.45;;;0.80;;
77362;SDS011;66428;47.322;9.432;2023-02-14T04:17:48;1.38;;;0.93;;
77362;SDS011;66428;47.322;9.432;2023-02-14T04:20:38;1.75;;;0.90;;
77362;SDS011;66428;47.322;9.432;2023-02-14T04:23:04;2.45;;;1.15;;
77362;SDS011;66428;47.322;9.432;2023-02-14T04:25:31;1.75;;;1.05;;
77362;SDS011;66428;47.322;9.432;2023-02-14T04:28:00;4.50;;;1.73;;
77362;SDS011;66428;47.322;9.432;2023-02-14T04:30:29;2.05;;;1.25;;
77362;SDS011;66428;47.322;9.432;2023-02-14T04:32:58;2.55;;;1.50;;
77362;SDS011;66428;47.322;9.432;2023-02-14T04:35:27;2.83;;;1.23;;
77362;SDS011;66428;47.322;9.432;2023-02-14T04:37:55;1.90;;;0.98;;
77362;SDS011;66428;47.322;9.432;2023-02-14T04:40:24;1.88;;;1.13;;
77362;SDS011;66428;47.322;9.432;2023-02-14T04:42:56;1.42;;;0.93;;
77362;SDS011;66428;47.322;9.432;2023-02-14T04:45:27;4.53;;;1.35;;
77362;SDS011;66428;47.322;9.432;2023-02-14T04:47:58;3.45;;;1.60;;
77362;SDS011;66428;47.322;9.432;2023-02-14T04:50:25;1.83;;;1.13;;
77362;SDS011;66428;47.322;9.432;2023-02-14T04:52:54;3.05;;;1.30;;
77362;SDS011;66428;47.322;9.432;2023-02-14T04:55:25;4.45;;;2.30;;
77362;SDS011;66428;47.322;9.432;2023-02-14T04:57:54;2.40;;;1.40;;
77362;SDS011;66428;47.322;9.432;2023-02-14T05:00:23;2.75;;;1.60;;
77362;SDS011;66428;47.322;9.432;2023-02-14T05:02:52;2.28;;;1.40;;
77362;SDS011;66428;47.322;9.432;2023-02-14T05:05:23;3.85;;;1.73;;
77362;SDS011;66428;47.322;9.432;2023-02-14T05:07:50;3.78;;;1.60;;
77362;SDS011;66428;47.322;9.432;2023-02-14T05:10:16;2.42;;;1.48;;
77362;SDS011;66428;47.322;9.432;2023-02-14T05:12:45;2.85;;;1.60;;
77362;SDS011;66428;47.322;9.432;2023-02-14T05:15:14;3.53;;;1.23;;
77362;SDS011;66428;47.322;9.432;2023-02-14T05:17:40;2.85;;;1.40;;
77362;SDS011;66428;47.322;9.432;2023-02-14T05:20:10;2.97;;;1.20;;
77362;SDS011;66428;47.322;9.432;2023-02-14T05:22:39;3.22;;;1.65;;
77362;SDS011;66428;47.322;9.432;2023-02-14T05:25:05;2.50;;;1.02;;
77362;SDS011;66428;47.322;9.432;2023-02-14T05:27:32;2.95;;;1.30;;
77362;SDS011;66428;47.322;9.432;2023-02-14T05:29:58;2.40;;;1.50;;
77362;SDS011;66428;47.322;9.432;2023-02-14T05:32:25;3.22;;;1.13;;
77362;SDS011;66428;47.322;9.432;2023-02-14T05:34:51;2.00;;;1.30;;
77362;SDS011;66428;47.322;9.432;2023-02-14T05:37:23;5.45;;;1.60;;
77362;SDS011;66428;47.322;9.432;2023-02-14T05:39:52;2.58;;;1.50;;
77362;SDS011;66428;47.322;9.432;2023-02-14T05:42:21;2.65;;;1.42;;
77362;SDS011;66428;47.322;9.432;2023-02-14T05:44:47;2.85;;;1.42;;
77362;SDS011;66428;47.322;9.432;2023-02-14T05:47:16;2.47;;;1.33;;
77362;SDS011;66428;47.322;9.432;2023-02-14T05:49:43;2.00;;;1.27;;
77362;SDS011;66428;47.322;9.432;2023-02-14T05:52:12;2.17;;;1.30;;
77362;SDS011;66428;47.322;9.432;2023-02-14T05:54:44;2.53;;;1.25;;
77362;SDS011;66428;47.322;9.432;2023-02-14T05:57:12;2.67;;;1.40;;
77362;SDS011;66428;47.322;9.432;2023-02-14T05:59:41;2.65;;;1.48;;
77362;SDS011;66428;47.322;9.432;2023-02-14T06:02:13;3.55;;;1.52;;
77362;SDS011;66428;47.322;9.432;2023-02-14T06:04:43;5.18;;;2.33;;
77362;SDS011;66428;47.322;9.432;2023-02-14T06:07:10;4.15;;;2.00;;
77362;SDS011;66428;47.322;9.432;2023-02-14T06:09:39;3.88;;;1.92;;
77362;SDS011;66428;47.322;9.432;2023-02-14T06:12:08;4.20;;;1.77;;
77362;SDS011;66428;47.322;9.432;2023-02-14T06:14:34;5.13;;;2.00;;
77362;SDS011;66428;47.322;9.432;2023-02-14T06:17:00;4.18;;;1.75;;
77362;SDS011;66428;47.322;9.432;2023-02-14T06:19:30;4.55;;;1.55;;
77362;SDS011;66428;47.322;9.432;2023-02-14T06:21:56;4.70;;;2.35;;
77362;SDS011;66428;47.322;9.432;2023-02-14T06:24:25;5.57;;;2.50;;
77362;SDS011;66428;47.322;9.432;2023-02-14T06:26:52;3.35;;;2.00;;
77362;SDS011;66428;47.322;9.432;2023-02-14T06:29:21;5.03;;;2.45;;
77362;SDS011;66428;47.322;9.432;2023-02-14T06:31:50;18.33;;;7.10;;
77362;SDS011;66428;47.322;9.432;2023-02-14T06:34:16;7.15;;;3.13;;
77362;SDS011;66428;47.322;9.432;2023-02-14T06:36:45;4.38;;;2.25;;
77362;SDS011;66428;47.322;9.432;2023-02-14T06:39:12;7.15;;;2.78;;
77362;SDS011;66428;47.322;9.432;2023-02-14T06:41:38;4.72;;;2.38;;
77362;SDS011;66428;47.322;9.432;2023-02-14T06:44:05;5.93;;;2.80;;
77362;SDS011;66428;47.322;9.432;2023-02-14T06:46:31;9.10;;;3.13;;
77362;SDS011;66428;47.322;9.432;2023-02-14T06:48:57;5.35;;;3.40;;
77362;SDS011;66428;47.322;9.432;2023-02-14T06:51:24;3.28;;;1.83;;
77362;SDS011;66428;47.322;9.432;2023-02-14T06:53:53;4.28;;;2.53;;
77362;SDS011;66428;47.322;9.432;2023-02-14T06:56:19;3.65;;;1.58;;
77362;SDS011;66428;47.322;9.432;2023-02-14T06:58:48;1.98;;;1.23;;
77362;SDS011;66428;47.322;9.432;2023-02-14T07:01:14;4.53;;;2.03;;
77362;SDS011;66428;47.322;9.432;2023-02-14T07:03:46;2.55;;;1.30;;
77362;SDS011;66428;47.322;9.432;2023-02-14T07:06:17;4.38;;;1.75;;
77362;SDS011;66428;47.322;9.432;2023-02-14T07:08:46;2.83;;;1.73;;
77362;SDS011;66428;47.322;9.432;2023-02-14T07:11:13;4.05;;;1.70;;
77362;SDS011;66428;47.322;9.432;2023-02-14T07:13:42;4.18;;;1.63;;
77362;SDS011;66428;47.322;9.432;2023-02-14T07:16:11;3.15;;;1.55;;
77362;SDS011;66428;47.322;9.432;2023-02-14T07:18:37;3.83;;;2.03;;
77362;SDS011;66428;47.322;9.432;2023-02-14T07:21:04;2.95;;;1.48;;
77362;SDS011;66428;47.322;9.432;2023-02-14T07:23:35;3.03;;;1.45;;
77362;SDS011;66428;47.322;9.432;2023-02-14T07:26:01;2.42;;;1.60;;
77362;SDS011;66428;47.322;9.432;2023-02-14T07:28:28;7.03;;;1.75;;
77362;SDS011;66428;47.322;9.432;2023-02-14T07:30:59;2.90;;;1.50;;
77362;SDS011;66428;47.322;9.432;2023-02-14T07:33:26;3.13;;;1.40;;
77362;SDS011;66428;47.322;9.432;2023-02-14T07:35:53;4.40;;;1.95;;
77362;SDS011;66428;47.322;9.432;2023-02-14T07:38:21;5.20;;;2.58;;
77362;SDS011;66428;47.322;9.432;2023-02-14T07:40:52;6.15;;;2.20;;
77362;SDS011;66428;47.322;9.432;2023-02-14T07:43:23;5.35;;;1.52;;
77362;SDS011;66428;47.322;9.432;2023-02-14T07:45:50;5.93;;;2.38;;
77362;SDS011;66428;47.322;9.432;2023-02-14T07:48:19;7.50;;;2.80;;
77362;SDS011;66428;47.322;9.432;2023-02-14T07:50:50;7.53;;;2.30;;
77362;SDS011;66428;47.322;9.432;2023-02-14T07:53:16;6.20;;;2.55;;
77362;SDS011;66428;47.322;9.432;2023-02-14T07:55:47;6.43;;;2.90;;
77362;SDS011;66428;47.322;9.432;2023-02-14T07:58:13;7.88;;;3.45;;
77362;SDS011;66428;47.322;9.432;2023-02-14T08:00:40;8.60;;;4.00;;
77362;SDS011;66428;47.322;9.432;2023-02-14T08:03:09;6.82;;;3.35;;
77362;SDS011;66428;47.322;9.432;2023-02-14T08:05:37;7.35;;;4.00;;
77362;SDS011;66428;47.322;9.432;2023-02-14T08:08:06;9.00;;;4.07;;
77362;SDS011;66428;47.322;9.432;2023-02-14T08:10:33;8.27;;;4.05;;
77362;SDS011;66428;47.322;9.432;2023-02-14T08:12:59;8.45;;;4.45;;
77362;SDS011;66428;47.322;9.432;2023-02-14T08:18:13;9.35;;;3.90;;
77362;SDS011;66428;47.322;9.432;2023-02-14T08:20:40;7.72;;;3.63;;
77362;SDS011;66428;47.322;9.432;2023-02-14T08:23:06;9.35;;;4.28;;
77362;SDS011;66428;47.322;9.432;2023-02-14T08:25:36;8.55;;;3.63;;
77362;SDS011;66428;47.322;9.432;2023-02-14T08:28:03;5.82;;;3.25;;
77362;SDS011;66428;47.322;9.432;2023-02-14T08:30:35;13.07;;;4.85;;
77362;SDS011;66428;47.322;9.432;2023-02-14T08:33:05;12.85;;;4.18;;
77362;SDS011;66428;47.322;9.432;2023-02-14T08:35:32;7.10;;;3.88;;
77362;SDS011;66428;47.322;9.432;2023-02-14T08:38:01;6.15;;;2.80;;
77362;SDS011;66428;47.322;9.432;2023-02-14T08:40:32;6.47;;;2.55;;
77362;SDS011;66428;47.322;9.432;2023-02-14T08:42:58;6.47;;;2.72;;
77362;SDS011;66428;47.322;9.432;2023-02-14T08:45:25;5.50;;;2.80;;
77362;SDS011;66428;47.322;9.432;2023-02-14T08:47:52;5.88;;;2.60;;
77362;SDS011;66428;47.322;9.432;2023-02-14T08:50:18;5.40;;;2.30;;
77362;SDS011;66428;47.322;9.432;2023-02-14T08:52:45;5.38;;;2.63;;
77362;SDS011;66428;47.322;9.432;2023-02-14T08:55:14;6.40;;;2.88;;
77362;SDS011;66428;47.322;9.432;2023-02-14T08:57:41;5.55;;;2.15;;
77362;SDS011;66428;47.322;9.432;2023-02-14T09:00:07;4.18;;;2.10;;
77362;SDS011;66428;47.322;9.432;2023-02-14T09:02:39;6.70;;;2.47;;
77362;SDS011;66428;47.322;9.432;2023-02-14T09:05:10;5.93;;;2.85;;
77362;SDS011;66428;47.322;9.432;2023-02-14T09:07:37;6.13;;;2.10;;
77362;SDS011;66428;47.322;9.432;2023-02-14T09:10:06;8.15;;;2.10;;
77362;SDS011;66428;47.322;9.432;2023-02-14T09:12:32;8.82;;;2.22;;
77362;SDS011;66428;47.322;9.432;2023-02-14T09:15:00;3.15;;;1.95;;
77362;SDS011;66428;47.322;9.432;2023-02-14T09:17:27;5.82;;;2.38;;
77362;SDS011;66428;47.322;9.432;2023-02-14T09:19:58;6.55;;;2.25;;
77362;SDS011;66428;47.322;9.432;2023-02-14T09:22:27;6.35;;;1.88;;
77362;SDS011;66428;47.322;9.432;2023-02-14T09:24:56;7.40;;;2.67;;
77362;SDS011;66428;47.322;9.432;2023-02-14T09:27:27;6.95;;;2.17;;
77362;SDS011;66428;47.322;9.432;2023-02-14T09:29:56;15.77;;;2.80;;
77362;SDS011;66428;47.322;9.432;2023-02-14T09:32:23;5.13;;;2.13;;
77362;SDS011;66428;47.322;9.432;2023-02-14T09:34:51;7.38;;;2.33;;
77362;SDS011;66428;47.322;9.432;2023-02-14T09:37:20;3.30;;;1.95;;
77362;SDS011;66428;47.322;9.432;2023-02-14T09:39:49;3.10;;;1.88;;
77362;SDS011;66428;47.322;9.432;2023-02-14T09:49:51;7.43;;;2.08;;
77362;SDS011;66428;47.322;9.432;2023-02-14T09:52:18;5.50;;;1.80;;
77362;SDS011;66428;47.322;9.432;2023-02-14T09:54:50;3.55;;;1.58;;
77362;SDS011;66428;47.322;9.432;2023-02-14T09:57:35;3.72;;;1.40;;
77362;SDS011;66428;47.322;9.432;2023-02-14T10:00:22;2.78;;;1.30;;
77362;SDS011;66428;47.322;9.432;2023-02-14T10:05:31;2.55;;;1.20;;
77362;SDS011;66428;47.322;9.432;2023-02-14T10:10:49;5.47;;;1.60;;
77362;SDS011;66428;47.322;9.432;2023-02-14T10:15:48;3.83;;;1.73;;
77362;SDS011;66428;47.322;9.432;2023-02-14T10:18:37;6.30;;;1.52;;
77362;SDS011;66428;47.322;9.432;2023-02-14T10:21:05;3.13;;;1.38;;
77362;SDS011;66428;47.322;9.432;2023-02-14T10:23:48;4.20;;;1.58;;
77362;SDS011;66428;47.322;9.432;2023-02-14T10:26:23;4.43;;;1.55;;
77362;SDS011;66428;47.322;9.432;2023-02-14T10:28:54;3.05;;;1.50;;
77362;SDS011;66428;47.322;9.432;2023-02-14T10:33:54;5.88;;;1.67;;
77362;SDS011;66428;47.322;9.432;2023-02-14T10:39:00;8.48;;;2.13;;
77362;SDS011;66428;47.322;9.432;2023-02-14T10:41:40;9.02;;;2.45;;
77362;SDS011;66428;47.322;9.432;2023-02-14T10:54:51;7.00;;;1.88;;
77362;SDS011;66428;47.322;9.432;2023-02-14T10:57:31;7.35;;;2.10;;
77362;SDS011;66428;47.322;9.432;2023-02-14T11:02:33;4.50;;;2.20;;
77362;SDS011;66428;47.322;9.432;2023-02-14T11:05:09;6.68;;;2.25;;
77362;SDS011;66428;47.322;9.432;2023-02-14T11:07:40;3.80;;;1.95;;
77362;SDS011;66428;47.322;9.432;2023-02-14T11:10:12;5.88;;;2.97;;
77362;SDS011;66428;47.322;9.432;2023-02-14T11:12:39;3.50;;;1.83;;
77362;SDS011;66428;47.322;9.432;2023-02-14T11:17:36;4.95;;;2.17;;
77362;SDS011;66428;47.322;9.432;2023-02-14T11:20:21;5.65;;;2.22;;
77362;SDS011;66428;47.322;9.432;2023-02-14T11:22:48;4.15;;;1.60;;
77362;SDS011;66428;47.322;9.432;2023-02-14T11:25:26;4.20;;;1.90;;
77362;SDS011;66428;47.322;9.432;2023-02-14T11:33:02;10.18;;;3.63;;
77362;SDS011;66428;47.322;9.432;2023-02-14T11:35:30;7.78;;;2.45;;
77362;SDS011;66428;47.322;9.432;2023-02-14T11:38:03;8.43;;;3.70;;
77362;SDS011;66428;47.322;9.432;2023-02-14T11:42:59;8.23;;;3.72;;
77362;SDS011;66428;47.322;9.432;2023-02-14T11:45:45;7.03;;;2.90;;
77362;SDS011;66428;47.322;9.432;2023-02-14T11:51:09;17.13;;;4.10;;
77362;SDS011;66428;47.322;9.432;2023-02-14T11:56:13;6.53;;;3.92;;
77362;SDS011;66428;47.322;9.432;2023-02-14T11:58:55;7.32;;;4.13;;
77362;SDS011;66428;47.322;9.432;2023-02-14T12:01:24;9.23;;;5.05;;
77362;SDS011;66428;47.322;9.432;2023-02-14T12:03:54;9.23;;;4.30;;
77362;SDS011;66428;47.322;9.432;2023-02-14T12:06:25;11.73;;;4.35;;
77362;SDS011;66428;47.322;9.432;2023-02-14T12:11:37;8.00;;;3.85;;
77362;SDS011;66428;47.322;9.432;2023-02-14T12:14:07;13.27;;;4.97;;
77362;SDS011;66428;47.322;9.432;2023-02-14T12:16:51;10.95;;;5.25;;
77362;SDS011;66428;47.322;9.432;2023-02-14T12:19:27;12.98;;;5.35;;
77362;SDS011;66428;47.322;9.432;2023-02-14T12:21:57;7.45;;;5.15;;
77362;SDS011;66428;47.322;9.432;2023-02-14T12:24:40;12.85;;;5.20;;
77362;SDS011;66428;47.322;9.432;2023-02-14T12:27:25;10.63;;;5.72;;
77362;SDS011;66428;47.322;9.432;2023-02-14T12:30:01;13.63;;;5.57;;
77362;SDS011;66428;47.322;9.432;2023-02-14T12:32:31;12.07;;;4.75;;
77362;SDS011;66428;47.322;9.432;2023-02-14T12:38:04;15.07;;;6.70;;
77362;SDS011;66428;47.322;9.432;2023-02-14T12:48:41;12.60;;;7.68;;
77362;SDS011;66428;47.322;9.432;2023-02-14T12:51:22;17.73;;;7.25;;
77362;SDS011;66428;47.322;9.432;2023-02-14T13:11:54;15.30;;;7.70;;
77362;SDS011;66428;47.322;9.432;2023-02-14T13:22:33;20.50;;;8.35;;
77362;SDS011;66428;47.322;9.432;2023-02-14T13:27:48;16.80;;;8.85;;
77362;SDS011;66428;47.322;9.432;2023-02-14T13:30:22;16.95;;;7.40;;
77362;SDS011;66428;47.322;9.432;2023-02-14T13:32:53;14.80;;;6.85;;
77362;SDS011;66428;47.322;9.432;2023-02-14T13:35:25;17.00;;;8.15;;
77362;SDS011;66428;47.322;9.432;2023-02-14T13:37:57;16.58;;;8.82;;
77362;SDS011;66428;47.322;9.432;2023-02-14T13:40:28;18.95;;;8.82;;
77362;SDS011;66428;47.322;9.432;2023-02-14T13:42:58;22.02;;;9.07;;
77362;SDS011;66428;47.322;9.432;2023-02-14T13:58:47;20.15;;;8.30;;
77362;SDS011;66428;47.322;9.432;2023-02-14T14:17:33;27.50;;;11.13;;
77362;SDS011;66428;47.322;9.432;2023-02-14T14:20:01;20.77;;;9.50;;
77362;SDS011;66428;47.322;9.432;2023-02-14T14:22:28;25.48;;;10.60;;
77362;SDS011;66428;47.322;9.432;2023-02-14T14:24:57;27.15;;;10.73;;
77362;SDS011;66428;47.322;9.432;2023-02-14T14:27:29;27.70;;;10.77;;
77362;SDS011;66428;47.322;9.432;2023-02-14T14:29:58;24.10;;;10.95;;
77362;SDS011;66428;47.322;9.432;2023-02-14T14:32:35;25.60;;;10.02;;
77362;SDS011;66428;47.322;9.432;2023-02-14T14:35:26;21.98;;;8.95;;
77362;SDS011;66428;47.322;9.432;2023-02-14T14:37:53;18.38;;;8.48;;
77362;SDS011;66428;47.322;9.432;2023-02-14T14:42:54;19.25;;;8.27;;
77362;SDS011;66428;47.322;9.432;2023-02-14T14:45:25;21.35;;;9.85;;
77362;SDS011;66428;47.322;9.432;2023-02-14T14:47:58;21.33;;;9.93;;
77362;SDS011;66428;47.322;9.432;2023-02-14T14:50:25;18.83;;;8.55;;
77362;SDS011;66428;47.322;9.432;2023-02-14T14:52:56;22.02;;;9.05;;
77362;SDS011;66428;47.322;9.432;2023-02-14T14:55:36;17.60;;;8.10;;
77362;SDS011;66428;47.322;9.432;2023-02-14T14:58:04;16.80;;;9.35;;
77362;SDS011;66428;47.322;9.432;2023-02-14T15:00:37;18.80;;;9.10;;
77362;SDS011;66428;47.322;9.432;2023-02-14T15:08:13;19.48;;;8.05;;
77362;SDS011;66428;47.322;9.432;2023-02-14T15:10:42;14.18;;;7.85;;
77362;SDS011;66428;47.322;9.432;2023-02-14T15:13:13;16.58;;;8.10;;
77362;SDS011;66428;47.322;9.432;2023-02-14T15:15:59;19.00;;;8.32;;
77362;SDS011;66428;47.322;9.432;2023-02-14T15:18:29;19.42;;;9.63;;
77362;SDS011;66428;47.322;9.432;2023-02-14T15:20:58;16.77;;;7.65;;
77362;SDS011;66428;47.322;9.432;2023-02-14T15:23:27;18.00;;;7.88;;
77362;SDS011;66428;47.322;9.432;2023-02-14T15:25:56;14.23;;;6.63;;
77362;SDS011;66428;47.322;9.432;2023-02-14T15:30:56;12.15;;;6.05;;
77362;SDS011;66428;47.322;9.432;2023-02-14T15:33:27;11.18;;;6.03;;
77362;SDS011;66428;47.322;9.432;2023-02-14T15:35:54;12.27;;;5.75;;
77362;SDS011;66428;47.322;9.432;2023-02-14T15:38:24;11.35;;;6.25;;
77362;SDS011;66428;47.322;9.432;2023-02-14T15:40:54;15.73;;;7.97;;
77362;SDS011;66428;47.322;9.432;2023-02-14T15:43:27;11.52;;;8.43;;
77362;SDS011;66428;47.322;9.432;2023-02-14T15:45:59;19.92;;;11.60;;
77362;SDS011;66428;47.322;9.432;2023-02-14T15:48:37;26.85;;;13.90;;
77362;SDS011;66428;47.322;9.432;2023-02-14T15:51:19;30.40;;;14.90;;
77362;SDS011;66428;47.322;9.432;2023-02-14T15:53:56;25.67;;;12.38;;
77362;SDS011;66428;47.322;9.432;2023-02-14T15:56:25;17.85;;;9.90;;
77362;SDS011;66428;47.322;9.432;2023-02-14T15:58:56;21.67;;;8.60;;
77362;SDS011;66428;47.322;9.432;2023-02-14T16:01:28;22.70;;;8.68;;
77362;SDS011;66428;47.322;9.432;2023-02-14T16:03:58;13.77;;;4.10;;
77362;SDS011;66428;47.322;9.432;2023-02-14T16:06:29;6.97;;;3.42;;
77362;SDS011;66428;47.322;9.432;2023-02-14T16:08:55;7.32;;;3.75;;
77362;SDS011;66428;47.322;9.432;2023-02-14T16:11:34;8.32;;;3.38;;
77362;SDS011;66428;47.322;9.432;2023-02-14T16:16:58;11.50;;;3.97;;
77362;SDS011;66428;47.322;9.432;2023-02-14T16:19:35;10.90;;;5.03;;
77362;SDS011;66428;47.322;9.432;2023-02-14T16:22:02;10.45;;;4.78;;
77362;SDS011;66428;47.322;9.432;2023-02-14T16:24:28;14.55;;;4.55;;
77362;SDS011;66428;47.322;9.432;2023-02-14T16:26:58;8.50;;;4.43;;
77362;SDS011;66428;47.322;9.432;2023-02-14T16:29:25;8.38;;;4.32;;
77362;SDS011;66428;47.322;9.432;2023-02-14T16:31:54;7.63;;;4.05;;
77362;SDS011;66428;47.322;9.432;2023-02-14T16:34:43;8.07;;;3.83;;
77362;SDS011;66428;47.322;9.432;2023-02-14T16:37:20;8.32;;;3.17;;
77362;SDS011;66428;47.322;9.432;2023-02-14T16:39:49;10.75;;;3.45;;
77362;SDS011;66428;47.322;9.432;2023-02-14T16:42:19;8.80;;;3.45;;
77362;SDS011;66428;47.322;9.432;2023-02-14T16:44:51;7.13;;;3.08;;
77362;SDS011;66428;47.322;9.432;2023-02-14T16:47:19;6.90;;;2.88;;
77362;SDS011;66428;47.322;9.432;2023-02-14T16:49:46;6.60;;;2.75;;
77362;SDS011;66428;47.322;9.432;2023-02-14T16:52:18;8.02;;;3.10;;
77362;SDS011;66428;47.322;9.432;2023-02-14T16:54:51;12.25;;;4.07;;
77362;SDS011;66428;47.322;9.432;2023-02-14T16:57:19;6.97;;;3.42;;
77362;SDS011;66428;47.322;9.432;2023-02-14T16:59:53;7.30;;;3.67;;
77362;SDS011;66428;47.322;9.432;2023-02-14T17:02:20;7.07;;;3.28;;
77362;SDS011;66428;47.322;9.432;2023-02-14T17:04:53;8.57;;;3.67;;
77362;SDS011;66428;47.322;9.432;2023-02-14T17:09:51;11.45;;;3.95;;
77362;SDS011;66428;47.322;9.432;2023-02-14T17:12:20;6.65;;;3.45;;
77362;SDS011;66428;47.322;9.432;2023-02-14T17:14:52;5.82;;;2.97;;
77362;SDS011;66428;47.322;9.432;2023-02-14T17:17:24;5.03;;;2.42;;
77362;SDS011;66428;47.322;9.432;2023-02-14T17:19:51;5.25;;;2.78;;
77362;SDS011;66428;47.322;9.432;2023-02-14T17:22:25;7.80;;;3.53;;
77362;SDS011;66428;47.322;9.432;2023-02-14T17:24:56;6.50;;;3.60;;
77362;SDS011;66428;47.322;9.432;2023-02-14T17:27:25;7.40;;;3.70;;
77362;SDS011;66428;47.322;9.432;2023-02-14T17:29:56;6.60;;;4.00;;
77362;SDS011;66428;47.322;9.432;2023-02-14T17:32:23;6.72;;;3.30;;
77362;SDS011;66428;47.322;9.432;2023-02-14T17:34:50;7.80;;;3.92;;
77362;SDS011;66428;47.322;9.432;2023-02-14T17:37:19;5.65;;;3.17;;
77362;SDS011;66428;47.322;9.432;2023-02-14T17:39:51;5.63;;;2.42;;
77362;SDS011;66428;47.322;9.432;2023-02-14T17:42:20;11.02;;;4.78;;
77362;SDS011;66428;47.322;9.432;2023-02-14T17:44:46;11.15;;;5.50;;
77362;SDS011;66428;47.322;9.432;2023-02-14T17:47:13;13.43;;;6.32;;
77362;SDS011;66428;47.322;9.432;2023-02-14T17:49:43;10.73;;;4.70;;
77362;SDS011;66428;47.322;9.432;2023-02-14T17:52:15;7.60;;;3.63;;
77362;SDS011;66428;47.322;9.432;2023-02-14T17:54:41;9.73;;;4.32;;
77362;SDS011;66428;47.322;9.432;2023-02-14T17:57:10;6.72;;;3.67;;
77362;SDS011;66428;47.322;9.432;2023-02-14T17:59:40;5.38;;;3.08;;
77362;SDS011;66428;47.322;9.432;2023-02-14T18:02:07;6.60;;;3.80;;
77362;SDS011;66428;47.322;9.432;2023-02-14T18:04:37;6.40;;;3.40;;
77362;SDS011;66428;47.322;9.432;2023-02-14T18:07:09;6.78;;;3.65;;
77362;SDS011;66428;47.322;9.432;2023-02-14T18:09:38;9.27;;;3.47;;
77362;SDS011;66428;47.322;9.432;2023-02-14T18:12:07;13.18;;;4.47;;
77362;SDS011;66428;47.322;9.432;2023-02-14T18:14:40;11.93;;;4.47;;
77362;SDS011;66428;47.322;9.432;2023-02-14T18:17:12;12.63;;;5.10;;